Time;durP1;ratioP1;P1;durP2;ratioP2;P2;SDS_P1;SDS_P2;PMS_P1;PMS_P2;Temp;Humidity;BMP_temperature;BMP_pressure;BME280_temperature;BME280_humidity;BME280_pressure;Samples;Min_cycle;Max_cycle;Signal;HPM_P1;HPM_P2
2022/06/18 00:01:33;;;;;;;;;;;;;;;;;;5032682;28;19913;-76
2022/06/18 00:03:59;;;;;;;;;;;;;;;;;;5032450;28;20437;-74
2022/06/18 00:06:24;;;;;;;;;;;;;;;;;;5034084;28;20032;-74
2022/06/18 00:08:51;;;;;;;;;;;;;;;;;;5034179;28;19909;-74
2022/06/18 00:14:02;;;;;;;;;;;;;;;;;;5033869;28;19960;-75
2022/06/18 00:16:29;;;;;;;;;;;;;;;;;;5032498;28;20281;-75
2022/06/18 00:18:55;;;;;;;;;;;;;;;;;;5033718;28;19913;-75
2022/06/18 00:21:21;;;;;;;;;;;;;;;;;;5032462;28;19931;-74
2022/06/18 00:23:47;;;;;;;;;;;;;;;;;;5034012;28;19916;-74
2022/06/18 00:26:14;;;;;;;;;;;;;;;;;;5033571;28;19913;-76
2022/06/18 00:28:40;;;;;;;;;;;;;;;;;;5032373;28;19910;-75
2022/06/18 00:31:06;;;;;;;;;;;;;;;;;;5034160;28;19934;-75
2022/06/18 00:33:35;;;;;;;;;;;;;;;;;;5033631;28;19913;-74
2022/06/18 00:36:02;;;;;;;;;;;;;;;;;;5034124;28;19909;-74
2022/06/18 00:38:28;;;;;;;;;;;;;;;;;;5032221;28;19953;-74
2022/06/18 00:40:54;;;;;;;;;;;;;;;;;;5033328;28;20408;-76
2022/06/18 00:43:20;;;;;;;;;;;;;;;;;;5033812;28;19999;-75
2022/06/18 00:45:46;;;;;;;;;;;;;;;;;;5032135;28;19913;-73
2022/06/18 00:48:12;;;;;;;;;;;;;;;;;;5033708;28;19932;-74
2022/06/18 00:50:38;;;;;;;;;;;;;;;;;;5033684;28;19999;-74
2022/06/18 00:53:03;;;;;;;;;;;;;;;;;;5033447;28;20006;-73
2022/06/18 00:55:29;;;;;;;;;;;;;;;;;;5033394;28;19910;-75
2022/06/18 00:57:55;;;;;;;;;;;;;;;;;;5033384;28;20447;-74
2022/06/18 01:00:21;;;;;;;;;;;;;;;;;;5033371;28;19909;-74
2022/06/18 01:02:47;;;;;;;;;;;;;;;;;;5033859;28;19909;-75
2022/06/18 01:05:13;;;;;;;;;;;;;;;;;;5033335;28;19909;-75
2022/06/18 01:07:39;;;;;;;;;;;;;;;;;;5033522;28;19963;-74
2022/06/18 01:10:05;;;;;;;;;;;;;;;;;;5031996;28;19909;-75
2022/06/18 01:12:31;;;;;;;;;;;;;;;;;;5033139;28;19917;-74
2022/06/18 01:14:58;;;;;;;;;;;;;;;;;;5033755;28;19963;-74
2022/06/18 01:17:24;;;;;;;;;;;;;;;;;;5031956;28;19909;-76
2022/06/18 01:19:50;;;;;;;;;;;;;;;;;;5036379;28;20358;-74
2022/06/18 01:22:16;;;;;;;;;;;;;;;;;;5036967;28;19920;-74
2022/06/18 01:24:41;;;;;;;;;;;;;;;;;;5037124;28;20284;-75
2022/06/18 01:27:07;;;;;;;;;;;;;;;;;;5036726;28;19913;-74
2022/06/18 01:29:33;;;;;;;;;;;;;;;;;;5036822;28;19909;-74
2022/06/18 01:31:59;;;;;;;;;;;;;;;;;;5036990;28;19909;-74
2022/06/18 01:34:25;;;;;;;;;;;;;;;;;;5036715;28;19913;-74
2022/06/18 01:36:51;;;;;;;;;;;;;;;;;;5037192;28;19909;-75
2022/06/18 01:39:17;;;;;;;;;;;;;;;;;;5036509;28;19963;-74
2022/06/18 01:41:52;;;;;;;;;;;;;;;;;;5035113;28;20008;-74
2022/06/18 01:44:18;;;;;;;;;;;;;;;;;;5037086;28;20277;-73
2022/06/18 01:46:44;;;;;;;;;;;;;;;;;;5036366;28;19919;-74
2022/06/18 01:49:10;;;;;;;;;;;;;;;;;;5035109;28;20373;-74
2022/06/18 01:51:36;;;;;;;;;;;;;;;;;;5036409;28;20000;-74
2022/06/18 01:54:02;;;;;;;;;;;;;;;;;;5036595;28;19909;-74
2022/06/18 01:56:27;;;;;;;;;;;;;;;;;;5036230;28;19916;-74
2022/06/18 01:58:53;;;;;;;;;;;;;;;;;;5036235;28;19999;-74
2022/06/18 02:01:19;;;;;;;;;;;;;;;;;;5036174;28;19909;-75
2022/06/18 02:03:45;;;;;;;;;;;;;;;;;;5036169;28;19920;-74
2022/06/18 02:06:11;;;;;;;;;;;;;;;;;;5036021;28;20411;-73
2022/06/18 02:08:37;;;;;;;;;;;;;;;;;;5036286;28;19996;-74
2022/06/18 02:11:06;;;;;;;;;;;;;;;;;;5035978;28;19909;-74
2022/06/18 02:13:31;;;;;;;;;;;;;;;;;;5034652;28;19959;-74
2022/06/18 02:15:57;;;;;;;;;;;;;;;;;;5036512;28;19913;-75
2022/06/18 02:18:23;;;;;;;;;;;;;;;;;;5035879;28;19963;-74
2022/06/18 02:20:49;;;;;;;;;;;;;;;;;;5035822;28;19949;-73
2022/06/18 02:23:15;;;;;;;;;;;;;;;;;;5036071;28;19909;-75
2022/06/18 02:25:41;;;;;;;;;;;;;;;;;;5035637;28;19916;-74
2022/06/18 02:28:07;;;;;;;;;;;;;;;;;;5035713;28;19956;-73
2022/06/18 02:30:33;;;;;;;;;;;;;;;;;;5035678;28;19909;-74
2022/06/18 02:32:59;;;;;;;;;;;;;;;;;;5035577;28;19909;-74
2022/06/18 02:35:25;;;;;;;;;;;;;;;;;;5035554;28;19909;-73
2022/06/18 02:37:50;;;;;;;;;;;;;;;;;;5034160;28;20262;-75
2022/06/18 02:40:16;;;;;;;;;;;;;;;;;;5035452;28;20386;-75
2022/06/18 02:42:42;;;;;;;;;;;;;;;;;;5035066;28;20381;-75
2022/06/18 02:45:08;;;;;;;;;;;;;;;;;;5035620;28;19920;-74
2022/06/18 02:47:34;;;;;;;;;;;;;;;;;;5035211;28;19920;-73
2022/06/18 02:50:00;;;;;;;;;;;;;;;;;;5035235;28;19909;-74
2022/06/18 02:52:26;;;;;;;;;;;;;;;;;;5035237;28;19920;-75
2022/06/18 02:54:52;;;;;;;;;;;;;;;;;;5035456;28;19967;-74
2022/06/18 02:57:18;;;;;;;;;;;;;;;;;;5035132;28;19963;-74
2022/06/18 02:59:43;;;;;;;;;;;;;;;;;;5035118;28;19909;-75
2022/06/18 03:02:09;;;;;;;;;;;;;;;;;;5035082;28;19910;-75
2022/06/18 03:04:35;;;;;;;;;;;;;;;;;;5035766;28;20404;-74
2022/06/18 03:07:01;;;;;;;;;;;;;;;;;;5035016;28;19913;-75
2022/06/18 03:09:27;;;;;;;;;;;;;;;;;;5035034;28;19909;-74
2022/06/18 03:12:08;;;;;;;;;;;;;;;;;;5035353;28;19916;-74
2022/06/18 03:14:34;;;;;;;;;;;;;;;;;;5034803;28;19952;-74
2022/06/18 03:17:00;;;;;;;;;;;;;;;;;;5035053;28;19909;-75
2022/06/18 03:19:26;;;;;;;;;;;;;;;;;;5033439;28;20420;-74
2022/06/18 03:21:52;;;;;;;;;;;;;;;;;;5034953;28;19909;-75
2022/06/18 03:24:18;;;;;;;;;;;;;;;;;;5034633;28;19959;-75
2022/06/18 03:26:44;;;;;;;;;;;;;;;;;;5035072;28;20272;-74
2022/06/18 03:29:10;;;;;;;;;;;;;;;;;;5034796;28;19932;-73
2022/06/18 03:31:36;;;;;;;;;;;;;;;;;;5035079;28;19913;-74
2022/06/18 03:34:04;;;;;;;;;;;;;;;;;;5034427;28;19909;-74
2022/06/18 03:36:30;;;;;;;;;;;;;;;;;;5035069;28;19910;-74
2022/06/18 03:38:56;;;;;;;;;;;;;;;;;;5034308;28;19967;-75
2022/06/18 03:41:22;;;;;;;;;;;;;;;;;;5033740;28;19935;-76
2022/06/18 03:43:48;;;;;;;;;;;;;;;;;;5034268;28;19909;-74
2022/06/18 03:46:14;;;;;;;;;;;;;;;;;;5034713;28;20323;-75
2022/06/18 03:48:40;;;;;;;;;;;;;;;;;;5034485;28;20335;-75
2022/06/18 03:51:06;;;;;;;;;;;;;;;;;;5034437;28;19984;-75
2022/06/18 03:53:31;;;;;;;;;;;;;;;;;;5034094;28;19956;-75
2022/06/18 03:55:57;;;;;;;;;;;;;;;;;;5034656;28;20372;-74
2022/06/18 03:58:23;;;;;;;;;;;;;;;;;;5032763;28;19909;-75
2022/06/18 04:00:49;;;;;;;;;;;;;;;;;;5034253;28;19916;-74
2022/06/18 04:03:15;;;;;;;;;;;;;;;;;;5033950;28;19910;-74
2022/06/18 04:05:41;;;;;;;;;;;;;;;;;;5032572;28;20357;-75
2022/06/18 04:08:07;;;;;;;;;;;;;;;;;;5033897;28;19947;-74
2022/06/18 04:10:33;;;;;;;;;;;;;;;;;;5034163;28;19909;-74
2022/06/18 04:12:59;;;;;;;;;;;;;;;;;;5034107;28;20387;-74
2022/06/18 04:15:25;;;;;;;;;;;;;;;;;;5034360;28;19960;-73
2022/06/18 04:17:50;;;;;;;;;;;;;;;;;;5033776;28;20289;-74
2022/06/18 04:20:16;;;;;;;;;;;;;;;;;;5033752;28;19916;-74
2022/06/18 04:22:42;;;;;;;;;;;;;;;;;;5033712;28;20379;-74
2022/06/18 04:25:08;;;;;;;;;;;;;;;;;;5032417;28;19913;-74
2022/06/18 04:27:34;;;;;;;;;;;;;;;;;;5033601;28;20385;-73
2022/06/18 04:30:00;;;;;;;;;;;;;;;;;;5033925;28;19955;-74
2022/06/18 04:32:26;;;;;;;;;;;;;;;;;;5033856;28;20348;-73
2022/06/18 04:34:52;;;;;;;;;;;;;;;;;;5034154;28;19913;-75
2022/06/18 04:37:17;;;;;;;;;;;;;;;;;;5033559;28;20254;-74
2022/06/18 04:39:43;;;;;;;;;;;;;;;;;;5033487;28;19909;-74
2022/06/18 04:42:09;;;;;;;;;;;;;;;;;;5033404;28;20356;-75
2022/06/18 04:44:35;;;;;;;;;;;;;;;;;;5033884;28;19917;-74
2022/06/18 04:47:01;;;;;;;;;;;;;;;;;;5033420;28;20328;-74
2022/06/18 04:49:27;;;;;;;;;;;;;;;;;;5033994;28;20400;-74
2022/06/18 04:51:53;;;;;;;;;;;;;;;;;;5033720;28;19916;-75
2022/06/18 04:54:19;;;;;;;;;;;;;;;;;;5036450;28;19909;-74
2022/06/18 04:56:45;;;;;;;;;;;;;;;;;;5037420;28;20389;-73
2022/06/18 04:59:11;;;;;;;;;;;;;;;;;;5037908;28;20308;-74
2022/06/18 05:01:37;;;;;;;;;;;;;;;;;;5037567;28;19941;-75
2022/06/18 05:04:03;;;;;;;;;;;;;;;;;;5037315;28;19909;-73
2022/06/18 05:06:29;;;;;;;;;;;;;;;;;;5037496;28;19913;-74
2022/06/18 05:08:55;;;;;;;;;;;;;;;;;;5035936;28;19913;-75
2022/06/18 05:11:21;;;;;;;;;;;;;;;;;;5037719;28;20412;-74
2022/06/18 05:13:46;;;;;;;;;;;;;;;;;;5037374;28;19944;-76
2022/06/18 05:16:13;;;;;;;;;;;;;;;;;;5037310;28;20353;-74
2022/06/18 05:18:39;;;;;;;;;;;;;;;;;;5037002;28;19916;-75
2022/06/18 05:21:05;;;;;;;;;;;;;;;;;;5037004;28;19988;-74
2022/06/18 05:23:31;;;;;;;;;;;;;;;;;;5037500;28;20254;-74
2022/06/18 05:25:57;;;;;;;;;;;;;;;;;;5035514;28;19909;-75
2022/06/18 05:28:23;;;;;;;;;;;;;;;;;;5036826;28;19958;-74
2022/06/18 05:30:49;;;;;;;;;;;;;;;;;;5037048;28;20056;-73
2022/06/18 05:33:15;;;;;;;;;;;;;;;;;;5036739;28;19909;-75
2022/06/18 05:35:40;;;;;;;;;;;;;;;;;;5037205;28;20273;-73
2022/06/18 05:38:06;;;;;;;;;;;;;;;;;;5036530;28;19959;-75
2022/06/18 05:40:32;;;;;;;;;;;;;;;;;;5036852;28;19915;-74
2022/06/18 05:42:58;;;;;;;;;;;;;;;;;;5036344;28;20007;-74
2022/06/18 05:45:24;;;;;;;;;;;;;;;;;;5036488;28;19915;-75
2022/06/18 05:47:50;;;;;;;;;;;;;;;;;;5036683;28;19913;-74
2022/06/18 05:50:16;;;;;;;;;;;;;;;;;;5035111;28;20004;-74
2022/06/18 05:52:42;;;;;;;;;;;;;;;;;;5036901;28;19915;-74
2022/06/18 05:55:08;;;;;;;;;;;;;;;;;;5035045;28;19919;-74
2022/06/18 05:57:34;;;;;;;;;;;;;;;;;;5036833;28;19909;-74
2022/06/18 06:00:00;;;;;;;;;;;;;;;;;;5036245;28;20370;-75
2022/06/18 06:02:26;;;;;;;;;;;;;;;;;;5034889;28;19913;-74
2022/06/18 06:04:52;;;;;;;;;;;;;;;;;;5034355;28;19992;-74
2022/06/18 06:07:17;;;;;;;;;;;;;;;;;;5036074;28;20294;-75
2022/06/18 06:12:28;;;;;;;;;;;;;;;;;;5035763;28;20055;-74
2022/06/18 06:14:55;;;;;;;;;;;;;;;;;;5036221;28;19956;-74
2022/06/18 06:17:21;;;;;;;;;;;;;;;;;;5035882;28;19910;-74
2022/06/18 06:19:47;;;;;;;;;;;;;;;;;;5036118;28;19909;-74
2022/06/18 06:22:13;;;;;;;;;;;;;;;;;;5035791;28;20388;-75
2022/06/18 06:24:39;;;;;;;;;;;;;;;;;;5035768;28;19916;-75
2022/06/18 06:27:05;;;;;;;;;;;;;;;;;;5035634;28;19913;-74
2022/06/18 06:29:31;;;;;;;;;;;;;;;;;;5036237;28;19913;-75
2022/06/18 06:31:57;;;;;;;;;;;;;;;;;;5035633;28;19909;-74
2022/06/18 06:34:24;;;;;;;;;;;;;;;;;;5036132;28;20265;-75
2022/06/18 06:36:51;;;;;;;;;;;;;;;;;;5034060;28;19909;-74
2022/06/18 06:39:17;;;;;;;;;;;;;;;;;;5035730;28;19918;-75
2022/06/18 06:41:42;;;;;;;;;;;;;;;;;;5035234;28;20377;-76
2022/06/18 06:44:08;;;;;;;;;;;;;;;;;;5035664;28;19913;-75
2022/06/18 06:46:34;;;;;;;;;;;;;;;;;;5035276;28;19936;-75
2022/06/18 06:49:00;;;;;;;;;;;;;;;;;;5035327;28;19955;-75
2022/06/18 06:51:26;;;;;;;;;;;;;;;;;;5035313;28;19962;-76
2022/06/18 06:53:52;;;;;;;;;;;;;;;;;;5035486;28;19909;-75
2022/06/18 06:59:02;;;;;;;;;;;;;;;;;;5034930;28;19969;-74
2022/06/18 07:01:28;;;;;;;;;;;;;;;;;;5035375;28;19917;-74
2022/06/18 07:03:54;;;;;;;;;;;;;;;;;;5035033;28;20377;-75
2022/06/18 07:06:20;;;;;;;;;;;;;;;;;;5034952;28;19913;-74
2022/06/18 07:08:46;;;;;;;;;;;;;;;;;;5035247;28;20391;-76
2022/06/18 07:11:12;;;;;;;;;;;;;;;;;;5034881;28;19913;-74
2022/06/18 07:13:37;;;;;;;;;;;;;;;;;;5035156;28;19910;-75
2022/06/18 07:16:04;;;;;;;;;;;;;;;;;;5033985;28;20335;-76
2022/06/18 07:18:31;;;;;;;;;;;;;;;;;;5034647;28;20043;-75
2022/06/18 07:20:57;;;;;;;;;;;;;;;;;;5034779;28;19916;-75
2022/06/18 07:23:23;;;;;;;;;;;;;;;;;;5034701;28;19909;-76
2022/06/18 07:25:48;;;;;;;;;;;;;;;;;;5034817;28;19916;-73
2022/06/18 07:28:14;;;;;;;;;;;;;;;;;;5034798;28;19909;-73
2022/06/18 07:30:40;;;;;;;;;;;;;;;;;;5034539;28;20003;-74
2022/06/18 07:33:06;;;;;;;;;;;;;;;;;;5033248;28;20296;-74
2022/06/18 07:35:34;;;;;;;;;;;;;;;;;;5034726;28;19913;-74
2022/06/18 07:38:00;;;;;;;;;;;;;;;;;;5034260;28;20375;-75
2022/06/18 07:40:26;;;;;;;;;;;;;;;;;;5034988;28;19917;-74
2022/06/18 07:42:52;;;;;;;;;;;;;;;;;;5033860;28;19921;-75
2022/06/18 07:45:18;;;;;;;;;;;;;;;;;;5033264;28;19916;-74
2022/06/18 07:47:45;;;;;;;;;;;;;;;;;;5034458;28;19913;-77
2022/06/18 07:50:11;;;;;;;;;;;;;;;;;;5034357;28;20369;-73
2022/06/18 07:52:37;;;;;;;;;;;;;;;;;;5035870;28;19916;-76
2022/06/18 07:55:03;;;;;;;;;;;;;;;;;;5034236;28;19916;-76
2022/06/18 07:57:28;;;;;;;;;;;;;;;;;;5032805;28;19971;-76
2022/06/18 07:59:55;;;;;;;;;;;;;;;;;;5034339;28;20007;-76
2022/06/18 08:02:21;;;;;;;;;;;;;;;;;;5034048;28;19992;-75
2022/06/18 08:04:47;;;;;;;;;;;;;;;;;;5034483;28;19955;-74
2022/06/18 08:07:13;;;;;;;;;;;;;;;;;;5032560;28;19914;-74
2022/06/18 08:09:39;;;;;;;;;;;;;;;;;;5033918;28;19976;-74
2022/06/18 08:12:05;;;;;;;;;;;;;;;;;;5033832;28;19959;-74
2022/06/18 08:14:31;;;;;;;;;;;;;;;;;;5032564;28;19910;-74
2022/06/18 08:16:57;;;;;;;;;;;;;;;;;;5033777;28;19949;-74
2022/06/18 08:19:23;;;;;;;;;;;;;;;;;;5034190;28;19916;-74
2022/06/18 08:21:48;;;;;;;;;;;;;;;;;;5033837;28;19924;-74
2022/06/18 08:24:14;;;;;;;;;;;;;;;;;;5034091;28;20266;-77
2022/06/18 08:26:40;;;;;;;;;;;;;;;;;;5033830;28;19913;-78
2022/06/18 08:29:06;;;;;;;;;;;;;;;;;;5033586;28;19913;-81
2022/06/18 08:31:32;;;;;;;;;;;;;;;;;;5033666;28;20387;-80
2022/06/18 08:33:58;;;;;;;;;;;;;;;;;;5034073;28;20002;-78
2022/06/18 08:36:24;;;;;;;;;;;;;;;;;;5034009;28;19917;-82
2022/06/18 08:38:50;;;;;;;;;;;;;;;;;;5033847;28;19916;-80
2022/06/18 08:41:16;;;;;;;;;;;;;;;;;;5032105;28;19925;-78
2022/06/18 08:43:42;;;;;;;;;;;;;;;;;;5032337;28;20269;-80
2022/06/18 08:46:08;;;;;;;;;;;;;;;;;;5034034;28;20438;-83
2022/06/18 08:48:34;;;;;;;;;;;;;;;;;;5034155;28;19916;-83
2022/06/18 08:51:00;;;;;;;;;;;;;;;;;;5035170;28;19952;-79
2022/06/18 08:53:26;;;;;;;;;;;;;;;;;;5034228;28;19919;-79
2022/06/18 08:55:52;;;;;;;;;;;;;;;;;;5033514;28;19959;-81
2022/06/18 08:58:18;;;;;;;;;;;;;;;;;;5033520;28;20361;-80
2022/06/18 09:00:43;;;;;;;;;;;;;;;;;;5032134;28;19909;-77
2022/06/18 09:03:09;;;;;;;;;;;;;;;;;;5033664;28;19910;-76
2022/06/18 09:05:35;;;;;;;;;;;;;;;;;;5033312;28;19909;-77
2022/06/18 09:08:01;;;;;;;;;;;;;;;;;;5017374;28;20022;-76
2022/06/18 09:10:27;;;;;;;;;;;;;;;;;;5012206;28;19913;-76
2022/06/18 09:12:53;;;;;;;;;;;;;;;;;;5013375;28;19914;-76
2022/06/18 09:15:19;;;;;;;;;;;;;;;;;;5014106;28;20346;-79
2022/06/18 09:17:45;;;;;;;;;;;;;;;;;;5013765;28;19916;-75
2022/06/18 09:20:11;;;;;;;;;;;;;;;;;;5013474;28;20374;-74
2022/06/18 09:22:37;;;;;;;;;;;;;;;;;;5013447;28;19977;-78
2022/06/18 09:25:03;;;;;;;;;;;;;;;;;;5012144;28;19913;-76
2022/06/18 09:27:29;;;;;;;;;;;;;;;;;;5013374;28;19913;-76
2022/06/18 09:29:54;;;;;;;;;;;;;;;;;;5013903;28;19910;-76
2022/06/18 09:32:20;;;;;;;;;;;;;;;;;;5013348;28;19917;-74
2022/06/18 09:34:46;;;;;;;;;;;;;;;;;;5013314;28;19913;-74
2022/06/18 09:37:12;;;;;;;;;;;;;;;;;;5013316;28;19917;-73
2022/06/18 09:39:38;;;;;;;;;;;;;;;;;;5014866;28;19960;-76
2022/06/18 09:42:04;;;;;;;;;;;;;;;;;;5016651;28;19961;-75
2022/06/18 09:44:30;;;;;;;;;;;;;;;;;;5016769;28;19917;-75
2022/06/18 09:46:56;;;;;;;;;;;;;;;;;;5016718;28;19918;-75
2022/06/18 09:49:22;;;;;;;;;;;;;;;;;;5016655;28;19910;-75
2022/06/18 09:51:50;;;;;;;;;;;;;;;;;;5016694;28;19951;-74
2022/06/18 09:54:17;;;;;;;;;;;;;;;;;;5015323;28;20355;-74
2022/06/18 09:56:43;;;;;;;;;;;;;;;;;;5015898;28;19910;-78
2022/06/18 09:59:09;;;;;;;;;;;;;;;;;;5016183;28;19924;-75
2022/06/18 10:01:35;;;;;;;;;;;;;;;;;;5016688;28;19910;-75
2022/06/18 10:06:55;;;;;;;;;;;;;;;;;;5015969;28;19936;-74
2022/06/18 10:09:21;;;;;;;;;;;;;;;;;;5016171;28;20008;-74
2022/06/18 10:11:47;;;;;;;;;;;;;;;;;;5015269;28;20348;-74
2022/06/18 10:14:13;;;;;;;;;;;;;;;;;;5015688;28;19949;-74
2022/06/18 10:16:39;;;;;;;;;;;;;;;;;;5015726;28;19909;-74
2022/06/18 10:19:04;;;;;;;;;;;;;;;;;;5015755;28;19956;-75
2022/06/18 10:21:30;;;;;;;;;;;;;;;;;;5015808;28;19917;-74
2022/06/18 10:23:56;;;;;;;;;;;;;;;;;;5015828;28;19913;-74
2022/06/18 10:26:22;;;;;;;;;;;;;;;;;;5014645;28;19972;-74
2022/06/18 10:28:48;;;;;;;;;;;;;;;;;;5015935;28;19994;-74
2022/06/18 10:31:14;;;;;;;;;;;;;;;;;;5016237;28;20373;-74
2022/06/18 10:33:42;;;;;;;;;;;;;;;;;;5016130;28;19909;-75
2022/06/18 10:36:08;;;;;;;;;;;;;;;;;;5016286;28;20008;-74
2022/06/18 10:38:34;;;;;;;;;;;;;;;;;;5015701;28;19909;-74
2022/06/18 10:41:00;;;;;;;;;;;;;;;;;;5015562;28;19917;-74
2022/06/18 10:43:26;;;;;;;;;;;;;;;;;;5016291;28;20454;-74
2022/06/18 10:45:52;;;;;;;;;;;;;;;;;;5015616;28;20344;-74
2022/06/18 10:48:18;;;;;;;;;;;;;;;;;;5014226;28;20013;-74
2022/06/18 10:50:44;;;;;;;;;;;;;;;;;;5015477;28;19916;-74
2022/06/18 10:53:11;;;;;;;;;;;;;;;;;;5015482;28;20336;-73
2022/06/18 10:55:37;;;;;;;;;;;;;;;;;;5015698;28;20409;-74
2022/06/18 10:58:02;;;;;;;;;;;;;;;;;;5015667;28;19913;-74
2022/06/18 11:00:28;;;;;;;;;;;;;;;;;;5015291;28;19909;-74
2022/06/18 11:02:54;;;;;;;;;;;;;;;;;;5015794;28;19909;-74
2022/06/18 11:05:20;;;;;;;;;;;;;;;;;;5015175;28;19917;-74
2022/06/18 11:07:46;;;;;;;;;;;;;;;;;;5015662;28;19925;-74
2022/06/18 11:10:12;;;;;;;;;;;;;;;;;;5015442;28;19917;-74
2022/06/18 11:12:38;;;;;;;;;;;;;;;;;;5013892;28;19909;-74
2022/06/18 11:15:04;;;;;;;;;;;;;;;;;;5015636;28;20012;-74
2022/06/18 11:17:30;;;;;;;;;;;;;;;;;;5015370;28;19988;-74
2022/06/18 11:19:56;;;;;;;;;;;;;;;;;;5015025;28;19948;-74
2022/06/18 11:22:21;;;;;;;;;;;;;;;;;;5015244;28;19949;-74
2022/06/18 11:24:47;;;;;;;;;;;;;;;;;;5015222;28;19924;-74
2022/06/18 11:27:13;;;;;;;;;;;;;;;;;;5014810;28;19921;-74
2022/06/18 11:29:42;;;;;;;;;;;;;;;;;;5015387;28;19909;-74
2022/06/18 11:32:08;;;;;;;;;;;;;;;;;;5013551;28;19910;-74
2022/06/18 11:34:34;;;;;;;;;;;;;;;;;;5014765;28;19917;-74
2022/06/18 11:37:00;;;;;;;;;;;;;;;;;;5015278;28;20388;-74
2022/06/18 11:39:26;;;;;;;;;;;;;;;;;;5014609;28;19945;-73
2022/06/18 11:41:51;;;;;;;;;;;;;;;;;;5014522;28;19925;-74
2022/06/18 11:44:19;;;;;;;;;;;;;;;;;;5013365;28;19968;-73
2022/06/18 11:46:45;;;;;;;;;;;;;;;;;;5015106;28;19920;-74
2022/06/18 11:49:11;;;;;;;;;;;;;;;;;;5014498;28;19910;-75
2022/06/18 11:51:37;;;;;;;;;;;;;;;;;;5014488;28;19910;-74
2022/06/18 11:54:03;;;;;;;;;;;;;;;;;;5014434;28;19909;-74
2022/06/18 11:56:29;;;;;;;;;;;;;;;;;;5014335;28;19916;-74
2022/06/18 11:58:56;;;;;;;;;;;;;;;;;;5014595;28;19941;-74
2022/06/18 12:01:22;;;;;;;;;;;;;;;;;;5014209;28;19991;-74
2022/06/18 12:03:48;;;;;;;;;;;;;;;;;;5013851;28;19909;-74
2022/06/18 12:06:14;;;;;;;;;;;;;;;;;;5014425;28;19913;-74
2022/06/18 12:08:40;;;;;;;;;;;;;;;;;;5014203;28;19909;-74
2022/06/18 12:11:09;;;;;;;;;;;;;;;;;;5014151;28;20389;-74
2022/06/18 12:13:35;;;;;;;;;;;;;;;;;;5012855;28;19987;-74
2022/06/18 12:16:01;;;;;;;;;;;;;;;;;;5014151;28;20362;-74
2022/06/18 12:18:26;;;;;;;;;;;;;;;;;;5014365;28;19914;-74
2022/06/18 12:20:52;;;;;;;;;;;;;;;;;;5014364;28;19944;-74
2022/06/18 12:23:18;;;;;;;;;;;;;;;;;;5014039;28;19910;-74
2022/06/18 12:25:44;;;;;;;;;;;;;;;;;;5012724;28;20400;-74
2022/06/18 12:28:10;;;;;;;;;;;;;;;;;;5012593;28;19914;-74
2022/06/18 12:30:36;;;;;;;;;;;;;;;;;;5013968;28;20002;-74
2022/06/18 12:33:03;;;;;;;;;;;;;;;;;;5014233;28;20044;-74
2022/06/18 12:35:30;;;;;;;;;;;;;;;;;;5013919;28;20386;-75
2022/06/18 12:37:56;;;;;;;;;;;;;;;;;;5013810;28;19916;-74
2022/06/18 12:40:22;;;;;;;;;;;;;;;;;;5013951;28;20258;-74
2022/06/18 12:42:48;;;;;;;;;;;;;;;;;;5013448;28;20020;-74
2022/06/18 12:45:14;;;;;;;;;;;;;;;;;;5014122;28;19909;-74
2022/06/18 12:47:40;;;;;;;;;;;;;;;;;;5013716;28;19976;-73
2022/06/18 12:50:06;;;;;;;;;;;;;;;;;;5014025;28;19914;-74
2022/06/18 12:52:32;;;;;;;;;;;;;;;;;;5013670;28;20392;-74
2022/06/18 12:54:58;;;;;;;;;;;;;;;;;;5014023;28;19931;-74
2022/06/18 12:57:24;;;;;;;;;;;;;;;;;;5013727;28;19910;-74
2022/06/18 12:59:50;;;;;;;;;;;;;;;;;;5012417;28;19936;-74
2022/06/18 13:02:16;;;;;;;;;;;;;;;;;;5013625;28;19964;-74
2022/06/18 13:04:42;;;;;;;;;;;;;;;;;;5014188;28;20376;-74
2022/06/18 13:07:08;;;;;;;;;;;;;;;;;;5013814;28;19914;-74
2022/06/18 13:09:34;;;;;;;;;;;;;;;;;;5014175;28;20009;-74
2022/06/18 13:11:59;;;;;;;;;;;;;;;;;;5013632;28;20008;-74
2022/06/18 13:14:26;;;;;;;;;;;;;;;;;;5015072;28;20265;-73
2022/06/18 13:16:54;;;;;;;;;;;;;;;;;;5015866;28;19915;-74
2022/06/18 13:19:20;;;;;;;;;;;;;;;;;;5017354;28;20292;-74
2022/06/18 13:21:46;;;;;;;;;;;;;;;;;;5017780;28;19996;-74
2022/06/18 13:29:41;;;;;;;;;;;;;;;;;;5017107;28;19917;-74
2022/06/18 13:32:07;;;;;;;;;;;;;;;;;;5017020;28;20293;-74
2022/06/18 13:34:33;;;;;;;;;;;;;;;;;;5017487;28;19910;-74
2022/06/18 13:36:58;;;;;;;;;;;;;;;;;;5016439;28;19910;-73
2022/06/18 13:39:24;;;;;;;;;;;;;;;;;;5020116;28;20004;-74
2022/06/18 13:41:50;;;;;;;;;;;;;;;;;;5016630;28;19922;-74
2022/06/18 13:44:16;;;;;;;;;;;;;;;;;;5017093;28;19967;-74
2022/06/18 13:46:42;;;;;;;;;;;;;;;;;;5016989;28;19919;-74
2022/06/18 13:49:08;;;;;;;;;;;;;;;;;;5016744;28;19909;-74
2022/06/18 13:51:34;;;;;;;;;;;;;;;;;;5016987;28;20004;-74
2022/06/18 13:54:00;;;;;;;;;;;;;;;;;;5016657;28;20362;-74
2022/06/18 13:56:26;;;;;;;;;;;;;;;;;;5016874;28;19916;-75
2022/06/18 13:58:52;;;;;;;;;;;;;;;;;;5016533;28;20294;-74
2022/06/18 14:01:17;;;;;;;;;;;;;;;;;;5017002;28;19909;-74
2022/06/18 14:03:43;;;;;;;;;;;;;;;;;;5016463;28;19916;-74
2022/06/18 14:06:09;;;;;;;;;;;;;;;;;;5016922;28;20357;-74
2022/06/18 14:08:35;;;;;;;;;;;;;;;;;;5016416;28;19916;-74
2022/06/18 14:11:01;;;;;;;;;;;;;;;;;;5015024;28;19910;-74
2022/06/18 14:13:27;;;;;;;;;;;;;;;;;;5016602;28;19913;-74
2022/06/18 14:15:53;;;;;;;;;;;;;;;;;;5016261;28;19992;-74
2022/06/18 14:18:19;;;;;;;;;;;;;;;;;;5016758;28;19956;-74
2022/06/18 14:20:45;;;;;;;;;;;;;;;;;;5016139;28;19917;-75
2022/06/18 14:23:13;;;;;;;;;;;;;;;;;;5016107;28;19909;-74
2022/06/18 14:25:39;;;;;;;;;;;;;;;;;;5015648;28;19924;-74
2022/06/18 14:28:05;;;;;;;;;;;;;;;;;;5015994;28;19918;-74
2022/06/18 14:30:32;;;;;;;;;;;;;;;;;;5016259;28;19909;-74
2022/06/18 14:32:59;;;;;;;;;;;;;;;;;;5016233;28;19909;-74
2022/06/18 14:35:25;;;;;;;;;;;;;;;;;;5014630;28;19914;-74
2022/06/18 14:37:50;;;;;;;;;;;;;;;;;;5015788;28;19963;-75
2022/06/18 14:40:16;;;;;;;;;;;;;;;;;;5016333;28;19913;-74
2022/06/18 14:42:42;;;;;;;;;;;;;;;;;;5014054;28;19922;-74
2022/06/18 14:45:08;;;;;;;;;;;;;;;;;;5016190;28;19917;-74
2022/06/18 14:47:34;;;;;;;;;;;;;;;;;;5015579;28;20000;-75
2022/06/18 14:50:00;;;;;;;;;;;;;;;;;;5015559;28;20360;-74
2022/06/18 14:52:26;;;;;;;;;;;;;;;;;;5015538;28;19913;-75
2022/06/18 14:54:52;;;;;;;;;;;;;;;;;;5015746;28;19910;-74
2022/06/18 14:57:18;;;;;;;;;;;;;;;;;;5014211;28;19910;-74
2022/06/18 14:59:44;;;;;;;;;;;;;;;;;;5015399;28;19932;-74
2022/06/18 15:02:10;;;;;;;;;;;;;;;;;;5015910;28;19940;-74
2022/06/18 15:04:36;;;;;;;;;;;;;;;;;;5014006;28;20004;-74
2022/06/18 15:07:02;;;;;;;;;;;;;;;;;;5015488;28;20044;-74
2022/06/18 15:09:28;;;;;;;;;;;;;;;;;;5015293;28;19913;-74
2022/06/18 15:11:54;;;;;;;;;;;;;;;;;;5015455;28;19909;-74
2022/06/18 15:14:21;;;;;;;;;;;;;;;;;;5015133;28;19910;-74
2022/06/18 15:17:13;;;;;;;;;;;;;;;;;;5015637;28;19913;-74
2022/06/18 15:19:42;;;;;;;;;;;;;;;;;;5014950;28;19910;-74
2022/06/18 15:22:17;;;;;;;;;;;;;;;;;;5015054;28;19910;-74
2022/06/18 15:27:28;;;;;;;;;;;;;;;;;;5014575;28;20060;-74
2022/06/18 15:29:54;;;;;;;;;;;;;;;;;;5014800;28;19957;-74
2022/06/18 15:32:20;;;;;;;;;;;;;;;;;;5014822;28;20423;-74
2022/06/18 15:34:48;;;;;;;;;;;;;;;;;;5014838;28;19909;-75
2022/06/18 15:37:14;;;;;;;;;;;;;;;;;;5014267;28;19909;-74
2022/06/18 15:39:39;;;;;;;;;;;;;;;;;;5013349;28;19980;-74
2022/06/18 15:42:05;;;;;;;;;;;;;;;;;;5014474;28;19921;-74
2022/06/18 15:44:31;;;;;;;;;;;;;;;;;;5014638;28;19910;-74
2022/06/18 15:46:57;;;;;;;;;;;;;;;;;;5014540;28;19920;-74
2022/06/18 15:49:23;;;;;;;;;;;;;;;;;;5014533;28;19911;-74
2022/06/18 15:51:49;;;;;;;;;;;;;;;;;;5015060;28;19910;-76
2022/06/18 15:54:15;;;;;;;;;;;;;;;;;;5014502;28;19909;-74
2022/06/18 15:56:41;;;;;;;;;;;;;;;;;;5014664;28;19917;-74
2022/06/18 15:59:07;;;;;;;;;;;;;;;;;;5014385;28;20063;-74
2022/06/18 16:01:33;;;;;;;;;;;;;;;;;;5014641;28;19909;-74
2022/06/18 16:03:58;;;;;;;;;;;;;;;;;;5014598;28;20379;-74
2022/06/18 16:06:24;;;;;;;;;;;;;;;;;;5012962;28;20358;-74
2022/06/18 16:08:50;;;;;;;;;;;;;;;;;;5014218;28;19909;-74
2022/06/18 16:11:16;;;;;;;;;;;;;;;;;;5014277;28;19921;-75
2022/06/18 16:13:42;;;;;;;;;;;;;;;;;;5014495;28;19914;-74
2022/06/18 16:16:08;;;;;;;;;;;;;;;;;;5014175;28;19910;-74
2022/06/18 16:18:34;;;;;;;;;;;;;;;;;;5014475;28;19909;-74
2022/06/18 16:21:00;;;;;;;;;;;;;;;;;;5014408;28;20365;-74
2022/06/18 16:23:26;;;;;;;;;;;;;;;;;;5014677;28;19910;-74
2022/06/18 16:25:52;;;;;;;;;;;;;;;;;;5014083;28;20273;-74
2022/06/18 16:28:17;;;;;;;;;;;;;;;;;;5013917;28;19913;-74
2022/06/18 16:30:43;;;;;;;;;;;;;;;;;;5014611;28;19932;-74
2022/06/18 16:33:09;;;;;;;;;;;;;;;;;;5013951;28;19909;-74
2022/06/18 16:35:35;;;;;;;;;;;;;;;;;;5013998;28;19960;-74
2022/06/18 16:38:01;;;;;;;;;;;;;;;;;;5014297;28;20408;-73
2022/06/18 16:40:27;;;;;;;;;;;;;;;;;;5014187;28;19914;-73
2022/06/18 16:42:53;;;;;;;;;;;;;;;;;;5013418;28;19921;-74
2022/06/18 16:45:21;;;;;;;;;;;;;;;;;;5014422;28;20362;-73
2022/06/18 16:47:47;;;;;;;;;;;;;;;;;;5013758;28;19964;-73
2022/06/18 16:50:13;;;;;;;;;;;;;;;;;;5017819;28;19959;-74
2022/06/18 16:52:39;;;;;;;;;;;;;;;;;;5017779;28;19931;-74
2022/06/18 16:55:05;;;;;;;;;;;;;;;;;;5018025;28;19909;-74
2022/06/18 16:57:30;;;;;;;;;;;;;;;;;;5017996;28;19949;-73